TimeCST,TemperatureF,Dew PointF,Humidity,Sea Level PressureIn,VisibilityMPH,Wind Direction,Wind SpeedMPH,Gust SpeedMPH,PrecipitationIn,Events,Conditions,WindDirDegrees,DateUTC
12:53 AM,42.1,25.0,51,29.83,10.0,East,4.6,-,N/A,,Mostly Cloudy,80,2012-12-07 06:53:00
1:53 AM,39.0,25.0,57,29.81,10.0,NE,5.8,-,N/A,,Scattered Clouds,40,2012-12-07 07:53:00
2:53 AM,37.9,25.0,60,29.83,10.0,Calm,Calm,-,N/A,,Partly Cloudy,0,2012-12-07 08:53:00
3:53 AM,35.1,24.1,64,29.83,10.0,North,3.5,-,N/A,,Partly Cloudy,360,2012-12-07 09:53:00
4:53 AM,37.0,25.0,62,29.81,10.0,Calm,Calm,-,N/A,,Scattered Clouds,0,2012-12-07 10:53:00
5:53 AM,32.0,23.0,69,29.86,10.0,NW,8.1,-,N/A,,Scattered Clouds,320,2012-12-07 11:53:00
6:53 AM,32.0,23.0,69,29.88,10.0,NNW,8.1,-,N/A,,Mostly Cloudy,330,2012-12-07 12:53:00
7:53 AM,30.9,23.0,72,29.89,10.0,NW,6.9,-,N/A,,Mostly Cloudy,320,2012-12-07 13:53:00
8:53 AM,39.0,27.0,62,29.89,10.0,NNW,8.1,-,N/A,,Mostly Cloudy,340,2012-12-07 14:53:00
9:53 AM,46.0,28.0,50,29.88,10.0,North,4.6,-,N/A,,Mostly Cloudy,350,2012-12-07 15:53:00
10:53 AM,48.9,28.0,44,29.88,10.0,Calm,Calm,-,N/A,,Mostly Cloudy,0,2012-12-07 16:53:00
11:53 AM,50.0,28.0,43,29.86,10.0,Calm,Calm,-,N/A,,Mostly Cloudy,0,2012-12-07 17:53:00
12:53 PM,53.1,28.0,38,29.81,10.0,SW,4.6,-,N/A,,Mostly Cloudy,230,2012-12-07 18:53:00
1:53 PM,57.0,28.0,33,29.79,10.0,SW,10.4,-,N/A,,Mostly Cloudy,220,2012-12-07 19:53:00
2:53 PM,60.1,28.0,30,29.78,10.0,SW,10.4,17.3,N/A,,Scattered Clouds,230,2012-12-07 20:53:00
3:53 PM,61.0,28.0,29,29.77,10.0,SW,9.2,-,N/A,,Partly Cloudy,230,2012-12-07 21:53:00
4:53 PM,61.0,28.0,29,29.76,10.0,SSW,9.2,-,N/A,,Partly Cloudy,210,2012-12-07 22:53:00
5:53 PM,55.0,28.0,35,29.78,10.0,South,8.1,-,N/A,,Clear,190,2012-12-07 23:53:00
6:53 PM,54.0,28.0,37,29.81,10.0,South,6.9,-,N/A,,Clear,180,2012-12-08 00:53:00
7:53 PM,53.1,28.0,38,29.82,10.0,South,9.2,-,N/A,,Clear,180,2012-12-08 01:53:00
8:53 PM,48.9,28.0,44,29.82,10.0,South,8.1,-,N/A,,Clear,180,2012-12-08 02:53:00
9:53 PM,48.9,28.0,44,29.82,10.0,SSE,6.9,-,N/A,,Clear,160,2012-12-08 03:53:00
10:53 PM,46.9,27.0,46,29.83,10.0,SSW,4.6,-,N/A,,Clear,200,2012-12-08 04:53:00
11:53 PM,39.0,25.0,57,29.85,10.0,West,3.5,-,N/A,,Clear,270,2012-12-08 05:53:00